N98 weather

Boyne City Municipal Airport
Boyne City, Michigan, United States

Public forecast

Using degrees Fahrenheit for public forecast. Weather courtesy of forecast.io.

METAR (pilot weather report)

Closest report is Charlevoix Municipal Airport, 13.3 nm (24.7 km) WNW. Retrieved 2019/06/25 07:35 UTC (0 seconds ago):

KCVX 250735Z AUTO 23008G15KT 10SM -RA BKN007 BKN011 OVC025 16/15 A2958 RMK AO2 T01550148

TAF (pilot weather forecast)

Closest forecast is Pellston Regional Airport of Emmet County Airport, 23.3 nm (43.1 km) NNE. Retrieved 2019/06/25 06:22 UTC (1 hour ago):

TAF KPLN 250520Z 2506/2606 22008KT 6SM -SHRA BR SCT012 OVC050 FM251100 27013G21KT 6SM -SHRA BR OVC017 FM251300 25011G19KT P6SM OVC035 FM251500 25013G21KT P6SM SCT180